Time;durP1;ratioP1;P1;durP2;ratioP2;P2;SDS_P1;SDS_P2;PMS_P1;PMS_P2;Temp;Humidity;BMP_temperature;BMP_pressure;BME280_temperature;BME280_humidity;BME280_pressure;Samples;Min_cycle;Max_cycle;Signal;HPM_P1;HPM_P2
2023/03/19 00:02:09;;;;;;;;;;;;;;;11.50;57.78;101050.53;5012479;28;19918;-83
2023/03/19 00:05:01;;;;;;;;;;;;;;;11.35;58.14;101049.00;5014278;28;19922;-82
2023/03/19 00:07:52;;;;;;;;;;;;;;;11.39;58.08;101050.00;5020393;28;20427;-83
2023/03/19 00:10:44;;;;;;;;;;;;;;;11.32;58.16;101059.72;5010602;28;19921;-83
2023/03/19 00:13:36;;;;;;;;;;;;;;;11.30;58.38;101056.50;5018463;28;19917;-84
2023/03/19 00:16:28;;;;;;;;;;;;;;;11.35;58.00;101045.47;5013389;28;19917;-83
2023/03/19 00:19:20;;;;;;;;;;;;;;;11.28;57.75;101043.19;5032403;28;19922;-84
2023/03/19 00:22:12;;;;;;;;;;;;;;;11.27;57.95;101043.53;5025044;28;20384;-83
2023/03/19 00:25:02;;;;;;;;;;;;;;;11.28;57.92;101054.09;5018940;28;19917;-78
2023/03/19 00:27:51;;;;;;;;;;;;;;;11.38;57.45;101047.56;5013544;28;19925;-78
2023/03/19 00:30:43;;;;;;;;;;;;;;;11.42;57.40;101056.75;5025228;28;20113;-76
2023/03/19 00:33:35;;;;;;;;;;;;;;;11.33;57.57;101056.69;5022810;28;19918;-80
2023/03/19 00:36:28;;;;;;;;;;;;;;;11.25;58.00;101065.59;5020816;28;19917;-80
2023/03/19 00:39:20;;;;;;;;;;;;;;;11.27;57.90;101052.50;5030619;28;19917;-80
2023/03/19 00:42:12;;;;;;;;;;;;;;;11.28;57.65;101047.84;5028422;28;20397;-81
2023/03/19 00:45:04;;;;;;;;;;;;;;;11.23;57.88;101045.25;5028773;28;20288;-80
2023/03/19 00:47:53;;;;;;;;;;;;;;;11.25;57.72;101053.91;5028917;28;19921;-81
2023/03/19 00:50:45;;;;;;;;;;;;;;;11.30;57.51;101056.50;5024363;28;19922;-81
2023/03/19 00:53:38;;;;;;;;;;;;;;;11.27;57.41;101043.53;5014010;28;19918;-80
2023/03/19 00:56:30;;;;;;;;;;;;;;;11.26;57.63;101060.97;5016080;28;19917;-80
2023/03/19 00:59:19;;;;;;;;;;;;;;;11.33;57.38;101047.69;5028588;28;19917;-82
2023/03/19 01:02:11;;;;;;;;;;;;;;;11.10;58.11;101031.41;5038367;28;19921;-82
2023/03/19 01:05:03;;;;;;;;;;;;;;;11.13;57.75;101025.34;5038503;28;19917;-82
2023/03/19 01:07:55;;;;;;;;;;;;;;;11.08;57.80;101022.75;5036190;28;20292;-82
2023/03/19 01:10:47;;;;;;;;;;;;;;;11.12;58.10;101012.84;5024475;28;19926;-80
2023/03/19 01:13:37;;;;;;;;;;;;;;;11.03;58.51;101022.88;5000713;28;19917;-80
2023/03/19 01:16:29;;;;;;;;;;;;;;;11.06;58.28;101025.00;5026591;28;19918;-80
2023/03/19 01:19:21;;;;;;;;;;;;;;;11.06;58.70;101016.03;5016515;28;20316;-80
2023/03/19 01:22:13;;;;;;;;;;;;;;;10.95;59.44;101025.56;5028372;28;20168;-79
2023/03/19 01:25:05;;;;;;;;;;;;;;;10.97;59.52;101026.06;5012238;28;19917;-79
2023/03/19 01:27:58;;;;;;;;;;;;;;;10.82;60.12;101019.03;5015913;28;19917;-80
2023/03/19 01:30:50;;;;;;;;;;;;;;;10.90;59.54;101023.75;5011871;28;19925;-79
2023/03/19 01:33:59;;;;;;;;;;;;;;;11.09;58.61;101015.38;5016267;28;19929;-79
2023/03/19 01:36:59;;;;;;;;;;;;;;;11.22;58.40;101011.00;5000546;28;19917;-79
2023/03/19 01:39:53;;;;;;;;;;;;;;;11.15;58.22;101006.78;5025288;28;19917;-79
2023/03/19 01:43:12;;;;;;;;;;;;;;;11.20;58.04;101005.06;5015292;28;20533;-80
2023/03/19 01:46:17;;;;;;;;;;;;;;;11.13;58.04;100991.88;5025407;28;20312;-79
2023/03/19 01:49:39;;;;;;;;;;;;;;;11.11;58.14;100991.41;4988609;28;19922;-80
2023/03/19 01:52:41;;;;;;;;;;;;;;;11.18;57.78;100999.09;5023763;28;19922;-80
2023/03/19 01:55:44;;;;;;;;;;;;;;;11.22;57.58;101006.34;5021228;28;19917;-79
2023/03/19 01:58:42;;;;;;;;;;;;;;;11.27;57.31;101010.88;5001196;28;19921;-80
2023/03/19 02:02:08;;;;;;;;;;;;;;;11.14;57.83;100988.84;5005204;28;20305;-79
2023/03/19 02:05:08;;;;;;;;;;;;;;;11.12;57.93;100979.41;5024757;28;19918;-80
2023/03/19 02:08:01;;;;;;;;;;;;;;;11.03;58.16;100992.94;5022327;28;19918;-79
2023/03/19 02:10:54;;;;;;;;;;;;;;;11.02;58.16;100999.50;5004708;28;20373;-79
2023/03/19 02:13:46;;;;;;;;;;;;;;;11.07;58.35;100991.19;5023905;28;19918;-80
2023/03/19 02:16:38;;;;;;;;;;;;;;;11.08;58.39;100989.28;5006478;28;19917;-80
2023/03/19 02:19:31;;;;;;;;;;;;;;;11.13;58.01;100984.50;5006211;28;19921;-79
2023/03/19 02:22:23;;;;;;;;;;;;;;;11.15;57.54;100987.75;5008513;28;20400;-80
2023/03/19 02:25:22;;;;;;;;;;;;;;;11.03;58.04;100990.22;5020246;28;19926;-80
2023/03/19 02:28:16;;;;;;;;;;;;;;;11.02;58.13;100990.56;5009666;28;19918;-80
2023/03/19 02:31:08;;;;;;;;;;;;;;;10.93;58.31;100995.91;5019148;28;19930;-80
2023/03/19 02:34:28;;;;;;;;;;;;;;;10.68;59.50;101012.88;5019429;28;20394;-81
2023/03/19 02:37:21;;;;;;;;;;;;;;;10.53;59.39;100997.72;5027321;28;19918;-79
2023/03/19 02:40:27;;;;;;;;;;;;;;;10.66;59.32;101009.66;5011106;28;19917;-79
2023/03/19 02:43:19;;;;;;;;;;;;;;;10.67;58.70;101000.38;5026716;28;19947;-79
2023/03/19 02:46:12;;;;;;;;;;;;;;;10.59;59.00;100999.22;5028138;28;20416;-80
2023/03/19 02:49:04;;;;;;;;;;;;;;;10.60;58.70;101003.53;5027883;28;19918;-80
2023/03/19 02:51:56;;;;;;;;;;;;;;;10.64;58.64;101001.81;5027897;28;19917;-79
2023/03/19 02:54:47;;;;;;;;;;;;;;;10.60;58.42;101000.03;5014704;28;20381;-78
2023/03/19 02:57:40;;;;;;;;;;;;;;;10.69;58.19;100998.16;5027760;28;19917;-79
2023/03/19 03:00:32;;;;;;;;;;;;;;;10.65;58.10;100997.19;5025113;28;19918;-78
2023/03/19 03:03:24;;;;;;;;;;;;;;;10.64;58.00;101003.72;5010283;28;19918;-79
2023/03/19 03:06:16;;;;;;;;;;;;;;;10.70;58.12;101000.56;4996500;28;19917;-80
2023/03/19 03:09:08;;;;;;;;;;;;;;;10.67;58.46;101003.09;4995830;28;19918;-81
2023/03/19 03:12:00;;;;;;;;;;;;;;;10.73;58.39;101005.38;5004005;28;19917;-81
2023/03/19 03:14:52;;;;;;;;;;;;;;;10.84;57.89;101005.94;5004962;28;19918;-80
2023/03/19 03:17:45;;;;;;;;;;;;;;;10.83;58.11;101004.34;5015573;28;20322;-81
2023/03/19 03:20:35;;;;;;;;;;;;;;;10.85;58.12;101006.75;5029143;28;19917;-81
2023/03/19 03:23:27;;;;;;;;;;;;;;;10.82;57.73;101007.38;5014221;28;19925;-82
2023/03/19 03:26:19;;;;;;;;;;;;;;;10.82;57.65;101005.44;5023222;28;19917;-81
2023/03/19 03:29:11;;;;;;;;;;;;;;;10.79;57.85;101000.63;5014123;28;19917;-81
2023/03/19 03:32:04;;;;;;;;;;;;;;;10.79;57.89;101008.00;5021903;28;19918;-81
2023/03/19 03:34:53;;;;;;;;;;;;;;;10.67;58.43;101017.50;5046817;28;19917;-81
2023/03/19 03:37:43;;;;;;;;;;;;;;;10.72;58.54;101011.94;5043871;28;20292;-81
2023/03/19 03:40:35;;;;;;;;;;;;;;;10.75;58.85;101010.53;5027498;28;19913;-82
2023/03/19 03:43:27;;;;;;;;;;;;;;;10.71;58.75;101021.22;5024808;28;19918;-82
2023/03/19 03:46:19;;;;;;;;;;;;;;;10.75;58.99;101021.41;5023666;28;19918;-82
2023/03/19 03:49:12;;;;;;;;;;;;;;;10.70;59.48;101016.09;5039293;28;19918;-82
2023/03/19 03:52:04;;;;;;;;;;;;;;;10.73;59.30;101012.75;5038127;28;19918;-81
2023/03/19 03:54:56;;;;;;;;;;;;;;;10.72;59.43;101013.84;5035162;28;20378;-81
2023/03/19 03:57:48;;;;;;;;;;;;;;;10.72;59.20;101022.00;5040598;28;19917;-81
2023/03/19 04:00:37;;;;;;;;;;;;;;;10.60;59.58;101024.50;5021055;28;19917;-81
2023/03/19 04:03:29;;;;;;;;;;;;;;;10.51;59.76;101026.34;5035709;28;19921;-81
2023/03/19 04:06:22;;;;;;;;;;;;;;;10.51;60.19;101029.06;5040291;28;19921;-81
2023/03/19 04:09:27;;;;;;;;;;;;;;;10.62;59.91;101028.50;5021063;28;19922;-82
2023/03/19 04:12:19;;;;;;;;;;;;;;;10.62;59.73;101022.25;5038404;28;19917;-80
2023/03/19 04:15:11;;;;;;;;;;;;;;;10.68;59.36;101016.38;5033230;28;20393;-82
2023/03/19 04:18:04;;;;;;;;;;;;;;;10.62;59.56;101025.78;5035027;28;19918;-81
2023/03/19 04:20:55;;;;;;;;;;;;;;;10.67;59.46;101033.00;5020785;28;20301;-81
2023/03/19 04:23:48;;;;;;;;;;;;;;;10.70;59.50;101032.41;5035813;28;19917;-82
2023/03/19 04:26:40;;;;;;;;;;;;;;;10.49;60.33;101042.16;5034900;28;19917;-82
2023/03/19 04:29:32;;;;;;;;;;;;;;;10.37;61.50;101052.72;5034223;28;19922;-81
2023/03/19 04:32:24;;;;;;;;;;;;;;;10.43;61.53;101051.50;5028178;28;19918;-81
2023/03/19 04:35:15;;;;;;;;;;;;;;;10.47;61.29;101061.47;5033209;28;19917;-80
2023/03/19 04:38:07;;;;;;;;;;;;;;;10.41;61.72;101083.66;5029134;28;19917;-81
2023/03/19 04:40:59;;;;;;;;;;;;;;;10.37;61.65;101075.28;5013378;28;19918;-80
2023/03/19 04:43:51;;;;;;;;;;;;;;;10.35;62.05;101076.72;5014717;28;19921;-81
2023/03/19 04:46:43;;;;;;;;;;;;;;;10.37;61.70;101066.31;5029953;28;19917;-81
2023/03/19 04:49:36;;;;;;;;;;;;;;;10.41;61.68;101072.78;5010823;28;19922;-81
2023/03/19 04:52:28;;;;;;;;;;;;;;;10.50;61.38;101082.63;4998974;28;19918;-81
2023/03/19 04:55:20;;;;;;;;;;;;;;;10.52;61.24;101090.47;5027344;28;19917;-81
2023/03/19 04:58:21;;;;;;;;;;;;;;;10.18;62.66;101091.72;5031252;28;20292;-81
2023/03/19 05:01:19;;;;;;;;;;;;;;;9.95;63.51;101091.91;5014637;28;19917;-81
2023/03/19 05:04:34;;;;;;;;;;;;;;;9.64;64.81;101095.22;5027512;28;20304;-81
2023/03/19 05:07:29;;;;;;;;;;;;;;;9.79;64.26;101096.84;5016885;28;19925;-81
2023/03/19 05:10:22;;;;;;;;;;;;;;;9.93;63.94;101092.22;5009750;28;19925;-81
2023/03/19 05:13:13;;;;;;;;;;;;;;;9.74;64.72;101088.78;5013403;28;20385;-81
2023/03/19 05:16:09;;;;;;;;;;;;;;;9.82;64.30;101090.78;5019219;28;19917;-81
2023/03/19 05:18:59;;;;;;;;;;;;;;;10.02;63.95;101101.25;5018293;28;20552;-81
2023/03/19 05:21:51;;;;;;;;;;;;;;;9.96;64.01;101101.66;5018829;28;19917;-81
2023/03/19 05:24:45;;;;;;;;;;;;;;;9.98;64.20;101102.16;5032753;28;19917;-81
2023/03/19 05:27:37;;;;;;;;;;;;;;;9.86;64.64;101099.94;5030373;28;19917;-81
2023/03/19 05:30:32;;;;;;;;;;;;;;;10.07;63.88;101101.16;5012187;28;20381;-81
2023/03/19 05:33:26;;;;;;;;;;;;;;;10.08;63.54;101091.91;5018477;28;19917;-80
2023/03/19 05:36:18;;;;;;;;;;;;;;;10.06;63.51;101099.53;5028726;28;20388;-80
2023/03/19 05:39:27;;;;;;;;;;;;;;;10.11;63.37;101110.31;5014003;28;19921;-81
2023/03/19 05:42:21;;;;;;;;;;;;;;;10.02;63.62;101106.69;5024985;28;19921;-81
2023/03/19 05:45:11;;;;;;;;;;;;;;;10.05;63.69;101119.69;5005143;28;19918;-81
2023/03/19 05:48:08;;;;;;;;;;;;;;;10.13;63.35;101120.88;5018678;28;19932;-81
2023/03/19 05:51:02;;;;;;;;;;;;;;;10.16;63.18;101115.66;5009911;28;19929;-80
2023/03/19 05:53:58;;;;;;;;;;;;;;;10.13;63.25;101110.00;4999046;28;19918;-80
2023/03/19 05:57:04;;;;;;;;;;;;;;;10.19;62.97;101119.72;5017360;28;19917;-80
2023/03/19 06:00:20;;;;;;;;;;;;;;;10.29;62.75;101116.78;5014749;28;19918;-80
2023/03/19 06:03:12;;;;;;;;;;;;;;;10.21;62.74;101118.28;5010157;28;20396;-80
2023/03/19 06:06:07;;;;;;;;;;;;;;;10.16;62.92;101123.81;5012683;28;19917;-79
2023/03/19 06:09:03;;;;;;;;;;;;;;;10.17;62.78;101122.72;5012027;28;19917;-80
2023/03/19 06:12:02;;;;;;;;;;;;;;;10.19;62.78;101128.66;5015455;28;19925;-79
2023/03/19 06:15:10;;;;;;;;;;;;;;;10.18;62.80;101134.41;5012807;28;19981;-80
2023/03/19 06:18:18;;;;;;;;;;;;;;;10.06;63.34;101142.22;5021010;28;19918;-81
2023/03/19 06:21:10;;;;;;;;;;;;;;;10.02;63.53;101139.28;5029080;28;20301;-81
2023/03/19 06:24:02;;;;;;;;;;;;;;;10.00;63.48;101144.25;5019329;28;19917;-80
2023/03/19 06:26:55;;;;;;;;;;;;;;;9.97;63.58;101141.28;5035623;28;19918;-80
2023/03/19 06:29:48;;;;;;;;;;;;;;;9.98;63.71;101143.72;5032047;28;19917;-81
2023/03/19 06:32:46;;;;;;;;;;;;;;;10.01;63.54;101148.53;5029093;28;19917;-80
2023/03/19 06:35:39;;;;;;;;;;;;;;;9.92;63.68;101152.25;5005604;28;19918;-80
2023/03/19 06:38:31;;;;;;;;;;;;;;;9.94;64.11;101145.44;5032631;28;19918;-80
2023/03/19 06:41:23;;;;;;;;;;;;;;;10.01;64.00;101158.59;5016541;28;19917;-81
2023/03/19 06:44:16;;;;;;;;;;;;;;;10.00;64.05;101160.53;5020009;28;19917;-81
2023/03/19 06:47:08;;;;;;;;;;;;;;;9.94;64.37;101160.94;5032125;28;19917;-81
2023/03/19 06:50:00;;;;;;;;;;;;;;;10.03;64.32;101162.66;5015267;28;19922;-81
2023/03/19 06:52:49;;;;;;;;;;;;;;;10.08;64.18;101162.56;5016041;28;19921;-81
2023/03/19 06:55:39;;;;;;;;;;;;;;;10.11;64.00;101167.38;5033802;28;19918;-80
2023/03/19 06:58:28;;;;;;;;;;;;;;;10.10;64.27;101164.97;5016463;28;19947;-80
2023/03/19 07:01:20;;;;;;;;;;;;;;;10.15;64.38;101171.13;5005186;28;19918;-81
2023/03/19 07:04:12;;;;;;;;;;;;;;;10.13;64.86;101172.50;5035135;28;19921;-81
2023/03/19 07:07:04;;;;;;;;;;;;;;;10.20;64.75;101172.97;5035264;28;19917;-81
2023/03/19 07:09:56;;;;;;;;;;;;;;;10.25;64.51;101170.97;5031747;28;19925;-81
2023/03/19 07:12:48;;;;;;;;;;;;;;;10.28;64.57;101172.25;5015581;28;19917;-81
2023/03/19 07:15:37;;;;;;;;;;;;;;;10.31;64.59;101168.91;5032305;28;19921;-81
2023/03/19 07:18:29;;;;;;;;;;;;;;;10.35;64.97;101166.41;5020973;28;19918;-81
2023/03/19 07:21:21;;;;;;;;;;;;;;;10.39;65.13;101172.84;5027642;28;20300;-81
2023/03/19 07:24:13;;;;;;;;;;;;;;;10.49;65.26;101178.91;5028082;28;19922;-79
2023/03/19 07:27:02;;;;;;;;;;;;;;;10.50;64.53;101179.72;5028075;28;19917;-81
2023/03/19 07:29:54;;;;;;;;;;;;;;;10.58;64.99;101184.44;5017275;28;19917;-81
2023/03/19 07:32:46;;;;;;;;;;;;;;;10.57;64.97;101186.34;5032012;28;19918;-80
2023/03/19 07:35:38;;;;;;;;;;;;;;;10.66;65.04;101194.59;5014645;28;19917;-81
2023/03/19 07:38:27;;;;;;;;;;;;;;;10.75;64.94;101187.34;5028388;28;20301;-81
2023/03/19 07:41:19;;;;;;;;;;;;;;;10.83;64.47;101193.97;5002819;28;19917;-81
2023/03/19 07:44:12;;;;;;;;;;;;;;;10.95;64.03;101197.78;5022116;28;20388;-80
2023/03/19 07:47:01;;;;;;;;;;;;;;;11.02;63.76;101198.16;5015869;28;19917;-80
2023/03/19 07:49:53;;;;;;;;;;;;;;;11.08;63.42;101190.69;5015859;28;19917;-80
2023/03/19 07:52:43;;;;;;;;;;;;;;;11.19;63.34;101204.88;5027529;28;19917;-79
2023/03/19 07:55:36;;;;;;;;;;;;;;;11.23;63.32;101200.41;5026769;28;19918;-80
2023/03/19 07:58:28;;;;;;;;;;;;;;;11.60;63.73;101205.50;5014106;28;19917;-78
2023/03/19 08:01:20;;;;;;;;;;;;;;;11.93;62.72;101208.81;5020172;28;19918;-78
2023/03/19 08:04:12;;;;;;;;;;;;;;;12.16;61.53;101198.66;5010141;28;19925;-79
2023/03/19 08:07:04;;;;;;;;;;;;;;;11.93;62.40;101196.00;5030904;28;20296;-78
2023/03/19 08:09:56;;;;;;;;;;;;;;;12.17;61.98;101201.09;5033019;28;19917;-78
2023/03/19 08:12:50;;;;;;;;;;;;;;;12.36;61.85;101198.91;5030227;28;20385;-79
2023/03/19 08:15:42;;;;;;;;;;;;;;;12.59;60.97;101193.38;5036445;28;19922;-78
2023/03/19 08:18:34;;;;;;;;;;;;;;;12.53;60.93;101203.63;5016888;28;19913;-78
2023/03/19 08:21:26;;;;;;;;;;;;;;;12.33;61.92;101206.94;5014147;28;19921;-79
2023/03/19 08:24:18;;;;;;;;;;;;;;;12.44;61.31;101211.75;5019699;28;19925;-77
2023/03/19 08:27:10;;;;;;;;;;;;;;;12.63;60.39;101199.81;5014322;28;19917;-78
2023/03/19 08:30:02;;;;;;;;;;;;;;;13.08;59.41;101209.38;5019927;28;19929;-78
2023/03/19 08:32:54;;;;;;;;;;;;;;;13.33;56.80;101205.06;5019042;28;20307;-78
2023/03/19 08:35:46;;;;;;;;;;;;;;;13.40;57.48;101208.13;5017219;28;19917;-78
2023/03/19 08:38:38;;;;;;;;;;;;;;;13.03;57.65;101208.72;5023923;28;19917;-78
2023/03/19 08:41:30;;;;;;;;;;;;;;;13.42;56.67;101216.78;5013184;28;19917;-78
2023/03/19 08:44:22;;;;;;;;;;;;;;;12.37;60.25;101216.88;5030253;28;19921;-78
2023/03/19 08:47:14;;;;;;;;;;;;;;;12.23;60.29;101208.00;5035575;28;19918;-78
2023/03/19 08:50:04;;;;;;;;;;;;;;;13.23;58.29;101224.50;5017101;28;19917;-79
2023/03/19 08:52:56;;;;;;;;;;;;;;;13.60;56.68;101221.13;5016503;28;19917;-78
2023/03/19 08:55:52;;;;;;;;;;;;;;;13.89;55.90;101223.19;5029115;28;19917;-79
2023/03/19 08:58:44;;;;;;;;;;;;;;;14.10;55.37;101221.38;5032916;28;19937;-77
2023/03/19 09:01:36;;;;;;;;;;;;;;;14.13;55.21;101230.84;5083357;22;20637;-78
2023/03/19 09:04:28;;;;;;;;;;;;;;;13.53;57.38;101225.47;5017486;28;20392;-81
2023/03/19 09:07:20;;;;;;;;;;;;;;;14.10;55.78;101217.81;5013162;28;20309;-80
2023/03/19 09:10:09;;;;;;;;;;;;;;;14.66;53.77;101218.59;5013565;28;20004;-81
2023/03/19 09:12:58;;;;;;;;;;;;;;;14.17;55.32;101234.50;5014670;28;19917;-81
2023/03/19 09:15:51;;;;;;;;;;;;;;;14.51;53.75;101233.63;5012964;28;19922;-81
2023/03/19 09:18:43;;;;;;;;;;;;;;;15.31;51.84;101223.47;5015151;28;19917;-81
2023/03/19 09:21:35;;;;;;;;;;;;;;;15.54;51.12;101223.97;5007687;28;19918;-80
2023/03/19 09:24:27;;;;;;;;;;;;;;;15.30;50.75;101228.16;5028269;28;19921;-81
2023/03/19 09:27:19;;;;;;;;;;;;;;;15.24;51.46;101234.97;5031858;28;19918;-81
2023/03/19 09:30:11;;;;;;;;;;;;;;;14.86;52.67;101243.28;5014992;28;20385;-80
2023/03/19 09:33:02;;;;;;;;;;;;;;;15.19;51.37;101243.38;5012931;28;19918;-81
2023/03/19 09:35:54;;;;;;;;;;;;;;;15.05;52.03;101250.25;5017127;28;19917;-81
2023/03/19 09:38:46;;;;;;;;;;;;;;;15.33;50.68;101248.63;5015952;28;19918;-81
2023/03/19 09:41:39;;;;;;;;;;;;;;;14.82;52.44;101245.06;4999674;28;19918;-81
2023/03/19 09:44:36;;;;;;;;;;;;;;;15.41;51.09;101245.81;5013280;28;19925;-80
2023/03/19 09:47:32;;;;;;;;;;;;;;;15.52;50.87;101246.22;5019113;28;19917;-80
2023/03/19 09:50:24;;;;;;;;;;;;;;;15.15;51.11;101245.19;5018766;28;19918;-79
2023/03/19 09:53:20;;;;;;;;;;;;;;;15.17;51.06;101248.41;5019512;28;19918;-80
2023/03/19 09:56:14;;;;;;;;;;;;;;;14.66;52.05;101248.69;5011226;28;19917;-82
2023/03/19 09:59:06;;;;;;;;;;;;;;;14.39;52.42;101247.19;5018995;28;19925;-81
2023/03/19 10:02:14;;;;;;;;;;;;;;;14.60;52.17;101237.13;5009529;28;19936;-78
2023/03/19 10:05:10;;;;;;;;;;;;;;;14.75;52.89;101241.25;5009926;28;19918;-77
2023/03/19 10:08:07;;;;;;;;;;;;;;;15.19;50.29;101237.91;5011204;28;19928;-80
2023/03/19 10:11:07;;;;;;;;;;;;;;;15.70;49.05;101238.63;5017280;28;19922;-81
2023/03/19 10:14:09;;;;;;;;;;;;;;;15.32;51.32;101234.09;5018946;28;20406;-81
2023/03/19 10:17:04;;;;;;;;;;;;;;;15.98;48.81;101239.66;5017505;28;20291;-81
2023/03/19 10:19:56;;;;;;;;;;;;;;;17.45;45.64;101238.53;5007870;28;19943;-83
2023/03/19 10:22:50;;;;;;;;;;;;;;;16.87;46.58;101240.69;5019501;28;19917;-81
2023/03/19 10:25:43;;;;;;;;;;;;;;;16.90;44.10;101228.22;5022510;28;19925;-83
2023/03/19 10:28:35;;;;;;;;;;;;;;;16.54;44.11;101227.06;5019601;28;19917;-81
2023/03/19 10:31:29;;;;;;;;;;;;;;;16.83;41.63;101230.75;5003894;28;19922;-82
2023/03/19 10:34:33;;;;;;;;;;;;;;;17.05;42.12;101225.56;5011020;28;19918;-81
2023/03/19 10:37:25;;;;;;;;;;;;;;;17.07;42.58;101230.72;5018009;28;19921;-81
2023/03/19 10:40:23;;;;;;;;;;;;;;;17.17;42.56;101223.97;5031203;28;20296;-86
2023/03/19 10:43:21;;;;;;;;;;;;;;;17.81;41.69;101219.16;5018960;28;19921;-82
2023/03/19 10:46:16;;;;;;;;;;;;;;;17.95;41.36;101218.75;5020705;28;19917;-81
2023/03/19 10:49:12;;;;;;;;;;;;;;;17.85;41.76;101214.56;5015165;28;19918;-81
2023/03/19 10:52:04;;;;;;;;;;;;;;;18.51;39.36;101218.59;5018785;28;20345;-82
2023/03/19 10:55:03;;;;;;;;;;;;;;;18.75;38.05;101219.22;5036387;28;20289;-81
2023/03/19 10:57:57;;;;;;;;;;;;;;;18.86;37.41;101210.41;5019003;28;19917;-82
2023/03/19 11:00:47;;;;;;;;;;;;;;;22.24;30.68;101215.56;5033078;28;19925;-83
2023/03/19 11:03:39;;;;;;;;;;;;;;;24.19;27.40;101206.28;5004025;28;19918;-81
2023/03/19 11:06:33;;;;;;;;;;;;;;;24.09;27.39;101201.47;5016978;28;19917;-81
2023/03/19 11:09:33;;;;;;;;;;;;;;;25.47;24.64;101213.25;5016943;28;20385;-81
2023/03/19 11:12:31;;;;;;;;;;;;;;;24.85;26.33;101201.09;5001857;28;19921;-81
2023/03/19 11:15:24;;;;;;;;;;;;;;;26.80;24.00;101203.56;5024164;28;19925;-81
2023/03/19 11:18:21;;;;;;;;;;;;;;;30.79;19.34;101200.31;5016908;28;19921;-81
2023/03/19 11:21:30;;;;;;;;;;;;;;;29.52;20.10;101198.56;5022654;28;19918;-81
2023/03/19 11:24:22;;;;;;;;;;;;;;;30.32;19.60;101196.34;5008218;28;19921;-82
2023/03/19 11:27:14;;;;;;;;;;;;;;;29.48;20.25;101195.06;5018251;28;19918;-82
2023/03/19 11:30:06;;;;;;;;;;;;;;;30.08;20.41;101187.28;5022979;28;19918;-83
2023/03/19 11:33:05;;;;;;;;;;;;;;;29.82;20.35;101180.66;5023587;28;19922;-82
2023/03/19 11:36:07;;;;;;;;;;;;;;;31.14;19.19;101184.53;5019909;28;19918;-82
2023/03/19 11:39:16;;;;;;;;;;;;;;;30.97;18.29;101171.75;5023409;28;19925;-81
2023/03/19 11:42:09;;;;;;;;;;;;;;;32.73;16.55;101173.03;5030904;28;19921;-83
2023/03/19 11:45:11;;;;;;;;;;;;;;;34.17;15.33;101173.53;5022351;28;19925;-83
2023/03/19 11:48:15;;;;;;;;;;;;;;;33.73;15.57;101162.41;5017113;28;19917;-83
2023/03/19 11:51:23;;;;;;;;;;;;;;;33.40;16.22;101158.50;5020585;28;19921;-83
2023/03/19 11:54:30;;;;;;;;;;;;;;;35.40;14.31;101150.34;5029343;28;19922;-84
2023/03/19 11:57:26;;;;;;;;;;;;;;;35.78;14.17;101146.09;5001787;28;19918;-82
2023/03/19 12:00:25;;;;;;;;;;;;;;;35.15;14.13;101142.97;5001511;28;19918;-83
2023/03/19 12:03:28;;;;;;;;;;;;;;;33.46;15.31;101131.25;5011926;28;19917;-83
2023/03/19 12:06:33;;;;;;;;;;;;;;;24.24;24.86;101122.50;5014474;28;19917;-82
2023/03/19 12:09:31;;;;;;;;;;;;;;;21.94;29.07;101122.28;5015727;28;19918;-82
2023/03/19 12:12:24;;;;;;;;;;;;;;;21.28;30.48;101115.66;5009413;28;19922;-81
2023/03/19 12:15:29;;;;;;;;;;;;;;;20.06;32.55;101108.00;5003202;28;19917;-83
2023/03/19 12:18:34;;;;;;;;;;;;;;;19.40;33.64;101106.38;5011483;28;19917;-82
2023/03/19 12:21:44;;;;;;;;;;;;;;;19.17;34.10;101108.28;5009590;28;19917;-82
2023/03/19 12:24:45;;;;;;;;;;;;;;;18.79;35.50;101114.59;5016632;28;19943;-82
2023/03/19 12:27:35;;;;;;;;;;;;;;;18.82;35.52;101113.06;5032298;28;19917;-82
2023/03/19 12:30:34;;;;;;;;;;;;;;;18.75;36.33;101109.00;5008007;28;19917;-82
2023/03/19 12:33:39;;;;;;;;;;;;;;;18.65;36.33;101106.81;5008363;28;19922;-82
2023/03/19 12:36:37;;;;;;;;;;;;;;;18.60;36.38;101106.28;5019941;28;19917;-82
2023/03/19 12:39:36;;;;;;;;;;;;;;;19.13;35.53;101107.44;5012373;28;19917;-83
2023/03/19 12:42:35;;;;;;;;;;;;;;;18.67;36.37;101101.75;4995719;28;19918;-82
2023/03/19 12:45:51;;;;;;;;;;;;;;;18.41;36.54;101100.72;5005750;28;19917;-83
2023/03/19 12:48:45;;;;;;;;;;;;;;;18.51;36.83;101086.38;5002254;28;20245;-84
2023/03/19 12:51:38;;;;;;;;;;;;;;;19.39;35.37;101099.28;5019725;28;19921;-85
2023/03/19 12:54:33;;;;;;;;;;;;;;;20.33;33.49;101082.00;5017567;28;19917;-85
2023/03/19 12:57:28;;;;;;;;;;;;;;;22.60;29.38;101093.47;5006969;28;19922;-85
2023/03/19 13:00:32;;;;;;;;;;;;;;;21.95;29.77;101082.31;5033453;28;19918;-86
2023/03/19 13:03:39;;;;;;;;;;;;;;;21.71;30.26;101085.66;5001592;28;19917;-83
2023/03/19 13:06:36;;;;;;;;;;;;;;;21.36;30.81;101091.63;5025463;28;19918;-83
2023/03/19 13:09:28;;;;;;;;;;;;;;;22.43;29.09;101079.50;5018627;28;19918;-85
2023/03/19 13:12:21;;;;;;;;;;;;;;;23.56;27.18;101070.88;5024235;28;19922;-83
2023/03/19 13:15:14;;;;;;;;;;;;;;;23.32;27.98;101072.38;5014873;28;19917;-84
2023/03/19 13:18:17;;;;;;;;;;;;;;;23.78;26.99;101070.50;5009502;28;19917;-83
2023/03/19 13:21:23;;;;;;;;;;;;;;;23.97;26.89;101060.97;5013669;28;19917;-84
2023/03/19 13:24:30;;;;;;;;;;;;;;;23.48;27.78;101061.75;5010279;28;19918;-84
2023/03/19 13:27:44;;;;;;;;;;;;;;;23.59;27.89;101056.19;4986087;28;19922;-84
2023/03/19 13:30:41;;;;;;;;;;;;;;;22.36;32.04;101060.84;4999437;28;20464;-84
2023/03/19 13:33:28;;;;;;;;;;;;;;;19.59;32.87;101048.44;5000802;28;19922;-83
2023/03/19 13:36:18;;;;;;;;;;;;;;;18.99;34.42;101054.78;5004704;28;19917;-81
2023/03/19 13:39:17;;;;;;;;;;;;;;;18.69;35.55;101043.53;5033680;28;19917;-82
2023/03/19 13:42:12;;;;;;;;;;;;;;;18.51;35.90;101045.88;4997862;28;19917;-80
2023/03/19 13:45:30;;;;;;;;;;;;;;;18.24;36.35;101044.88;5000901;28;20420;-80
2023/03/19 13:48:33;;;;;;;;;;;;;;;18.28;37.39;101048.53;4995717;28;19918;-80
2023/03/19 13:51:29;;;;;;;;;;;;;;;18.10;37.68;101049.25;5012802;28;19922;-80
2023/03/19 13:54:22;;;;;;;;;;;;;;;18.01;38.24;101048.66;4987459;28;20369;-82
2023/03/19 13:57:15;;;;;;;;;;;;;;;18.00;38.50;101038.78;4998245;28;19918;-80
2023/03/19 14:00:37;;;;;;;;;;;;;;;17.86;37.38;101044.78;5014729;28;20224;-80
2023/03/19 14:03:29;;;;;;;;;;;;;;;17.78;37.33;101032.78;5016192;28;19917;-80
2023/03/19 14:06:45;;;;;;;;;;;;;;;17.75;38.42;101028.00;5019497;28;19917;-84
2023/03/19 14:09:35;;;;;;;;;;;;;;;17.56;39.18;101036.13;5010513;28;19918;-80
2023/03/19 14:12:37;;;;;;;;;;;;;;;17.41;40.03;101029.47;5027965;28;20308;-79
2023/03/19 14:15:29;;;;;;;;;;;;;;;17.43;40.79;101029.09;5012347;28;19917;-80
2023/03/19 14:18:22;;;;;;;;;;;;;;;17.55;40.13;101023.53;5016312;28;19917;-80
2023/03/19 14:21:18;;;;;;;;;;;;;;;17.48;39.01;101028.84;5007924;28;19918;-79
2023/03/19 14:24:27;;;;;;;;;;;;;;;17.40;39.57;101016.06;5015594;28;19918;-80
2023/03/19 14:27:19;;;;;;;;;;;;;;;17.40;38.16;101027.06;5019465;28;19918;-80
2023/03/19 14:30:15;;;;;;;;;;;;;;;17.34;39.72;101022.97;4998549;28;20305;-80
2023/03/19 14:33:06;;;;;;;;;;;;;;;17.24;39.88;101018.81;5013955;28;19921;-80
2023/03/19 14:35:57;;;;;;;;;;;;;;;17.18;39.25;101013.91;5000543;28;19917;-80
2023/03/19 14:38:55;;;;;;;;;;;;;;;17.18;39.58;101011.97;5014534;28;19922;-80
2023/03/19 14:41:43;;;;;;;;;;;;;;;17.22;40.81;101010.09;5020048;28;19917;-79
2023/03/19 14:44:48;;;;;;;;;;;;;;;17.24;41.35;101012.50;5022107;28;19917;-78
2023/03/19 14:47:56;;;;;;;;;;;;;;;17.19;41.41;101012.75;5020121;28;19918;-80
2023/03/19 14:51:04;;;;;;;;;;;;;;;17.23;40.92;101010.91;5021249;28;19918;-79
2023/03/19 14:54:05;;;;;;;;;;;;;;;17.14;41.64;101008.31;5016769;28;20393;-80
2023/03/19 14:56:57;;;;;;;;;;;;;;;17.18;41.38;101009.22;5008289;28;19918;-80
2023/03/19 14:59:49;;;;;;;;;;;;;;;16.97;41.68;100995.69;5018438;28;19917;-79
2023/03/19 15:02:58;;;;;;;;;;;;;;;17.02;41.50;101009.19;5011376;28;19921;-81